sensor_id;sensor_type;location;lat;lon;timestamp;temperature;humidity
30889;DHT22;51092;50.874;7.024;2022-09-09T00:01:04;18.10;99.90
30889;DHT22;51092;50.874;7.024;2022-09-09T00:02:18;18.20;99.90
30889;DHT22;51092;50.874;7.024;2022-09-09T00:03:24;18.10;99.90
30889;DHT22;51092;50.874;7.024;2022-09-09T00:04:29;18.00;99.90
30889;DHT22;51092;50.874;7.024;2022-09-09T00:05:36;18.00;99.90
30889;DHT22;51092;50.874;7.024;2022-09-09T00:06:45;18.00;99.90
30889;DHT22;51092;50.874;7.024;2022-09-09T00:07:53;17.90;99.90
30889;DHT22;51092;50.874;7.024;2022-09-09T00:09:01;17.90;99.90
30889;DHT22;51092;50.874;7.024;2022-09-09T00:10:09;18.00;99.90
30889;DHT22;51092;50.874;7.024;2022-09-09T00:11:24;18.00;99.90
30889;DHT22;51092;50.874;7.024;2022-09-09T00:12:32;18.00;99.90
30889;DHT22;51092;50.874;7.024;2022-09-09T00:13:39;18.00;99.90
30889;DHT22;51092;50.874;7.024;2022-09-09T00:14:48;17.90;99.90
30889;DHT22;51092;50.874;7.024;2022-09-09T00:15:57;18.00;99.90
30889;DHT22;51092;50.874;7.024;2022-09-09T00:17:02;17.90;99.90
30889;DHT22;51092;50.874;7.024;2022-09-09T00:18:14;17.80;99.90
30889;DHT22;51092;50.874;7.024;2022-09-09T00:19:21;17.80;99.90
30889;DHT22;51092;50.874;7.024;2022-09-09T00:21:38;17.70;99.90
30889;DHT22;51092;50.874;7.024;2022-09-09T00:22:45;17.70;99.90
30889;DHT22;51092;50.874;7.024;2022-09-09T00:23:51;17.70;99.90
30889;DHT22;51092;50.874;7.024;2022-09-09T00:24:56;17.70;99.90
30889;DHT22;51092;50.874;7.024;2022-09-09T00:26:05;17.60;99.90
30889;DHT22;51092;50.874;7.024;2022-09-09T00:27:18;17.60;99.90
30889;DHT22;51092;50.874;7.024;2022-09-09T00:28:23;17.60;99.90
30889;DHT22;51092;50.874;7.024;2022-09-09T00:29:33;17.50;99.90
30889;DHT22;51092;50.874;7.024;2022-09-09T00:30:37;17.50;99.90
30889;DHT22;51092;50.874;7.024;2022-09-09T00:31:39;17.50;99.90
30889;DHT22;51092;50.874;7.024;2022-09-09T00:32:40;17.60;99.90
30889;DHT22;51092;50.874;7.024;2022-09-09T00:33:43;17.60;99.90
30889;DHT22;51092;50.874;7.024;2022-09-09T00:34:49;17.60;99.90
30889;DHT22;51092;50.874;7.024;2022-09-09T00:35:56;17.60;99.90
30889;DHT22;51092;50.874;7.024;2022-09-09T00:36:58;17.60;99.90
30889;DHT22;51092;50.874;7.024;2022-09-09T00:38:08;17.60;99.90
30889;DHT22;51092;50.874;7.024;2022-09-09T00:39:21;17.70;99.90
30889;DHT22;51092;50.874;7.024;2022-09-09T00:40:32;17.70;99.90
30889;DHT22;51092;50.874;7.024;2022-09-09T00:41:44;17.80;99.90
30889;DHT22;51092;50.874;7.024;2022-09-09T00:42:59;17.70;99.90
30889;DHT22;51092;50.874;7.024;2022-09-09T00:44:20;17.80;99.90
30889;DHT22;51092;50.874;7.024;2022-09-09T00:45:46;17.80;99.90
30889;DHT22;51092;50.874;7.024;2022-09-09T00:46:59;17.70;99.90
30889;DHT22;51092;50.874;7.024;2022-09-09T00:48:10;17.80;99.90
30889;DHT22;51092;50.874;7.024;2022-09-09T00:49:19;17.70;99.90
30889;DHT22;51092;50.874;7.024;2022-09-09T00:50:37;17.70;99.90
30889;DHT22;51092;50.874;7.024;2022-09-09T00:51:48;17.70;99.90
30889;DHT22;51092;50.874;7.024;2022-09-09T00:52:55;17.70;99.90
30889;DHT22;51092;50.874;7.024;2022-09-09T00:54:12;17.70;99.90
30889;DHT22;51092;50.874;7.024;2022-09-09T00:55:23;17.70;99.90
30889;DHT22;51092;50.874;7.024;2022-09-09T00:56:30;17.70;99.90
30889;DHT22;51092;50.874;7.024;2022-09-09T00:57:38;17.70;99.90
30889;DHT22;51092;50.874;7.024;2022-09-09T00:58:42;17.60;99.90
30889;DHT22;51092;50.874;7.024;2022-09-09T00:59:47;17.60;99.90
30889;DHT22;51092;50.874;7.024;2022-09-09T01:00:52;17.60;99.90
30889;DHT22;51092;50.874;7.024;2022-09-09T01:02:00;17.50;99.90
30889;DHT22;51092;50.874;7.024;2022-09-09T01:03:13;17.50;99.90
30889;DHT22;51092;50.874;7.024;2022-09-09T01:04:33;17.50;99.90
30889;DHT22;51092;50.874;7.024;2022-09-09T01:05:41;17.50;99.90
30889;DHT22;51092;50.874;7.024;2022-09-09T01:06:46;17.50;99.90
30889;DHT22;51092;50.874;7.024;2022-09-09T01:07:52;17.60;99.90
30889;DHT22;51092;50.874;7.024;2022-09-09T01:09:16;17.70;99.90
30889;DHT22;51092;50.874;7.024;2022-09-09T01:10:28;17.70;99.90
30889;DHT22;51092;50.874;7.024;2022-09-09T01:11:36;17.70;99.90
30889;DHT22;51092;50.874;7.024;2022-09-09T01:12:42;17.70;99.90
30889;DHT22;51092;50.874;7.024;2022-09-09T01:13:45;17.60;99.90
30889;DHT22;51092;50.874;7.024;2022-09-09T01:14:56;17.60;99.90
30889;DHT22;51092;50.874;7.024;2022-09-09T01:16:02;17.60;99.90
30889;DHT22;51092;50.874;7.024;2022-09-09T01:17:10;17.60;99.90
30889;DHT22;51092;50.874;7.024;2022-09-09T01:18:17;17.60;99.90
30889;DHT22;51092;50.874;7.024;2022-09-09T01:19:32;17.60;99.90
30889;DHT22;51092;50.874;7.024;2022-09-09T01:20:43;17.70;99.90
30889;DHT22;51092;50.874;7.024;2022-09-09T01:21:52;17.70;99.90
30889;DHT22;51092;50.874;7.024;2022-09-09T01:23:24;17.70;99.90
30889;DHT22;51092;50.874;7.024;2022-09-09T01:24:38;17.70;99.90
30889;DHT22;51092;50.874;7.024;2022-09-09T01:26:17;17.60;99.90
30889;DHT22;51092;50.874;7.024;2022-09-09T01:27:21;17.60;99.90
30889;DHT22;51092;50.874;7.024;2022-09-09T01:28:26;17.50;99.90
30889;DHT22;51092;50.874;7.024;2022-09-09T01:29:29;17.50;99.90
30889;DHT22;51092;50.874;7.024;2022-09-09T01:30:33;17.50;99.90
30889;DHT22;51092;50.874;7.024;2022-09-09T01:31:40;17.50;99.90
30889;DHT22;51092;50.874;7.024;2022-09-09T01:32:44;17.50;99.90
30889;DHT22;51092;50.874;7.024;2022-09-09T01:33:47;17.40;99.90
30889;DHT22;51092;50.874;7.024;2022-09-09T01:34:50;17.40;99.90
30889;DHT22;51092;50.874;7.024;2022-09-09T01:35:57;17.30;99.90
30889;DHT22;51092;50.874;7.024;2022-09-09T01:37:02;17.30;99.90
30889;DHT22;51092;50.874;7.024;2022-09-09T01:38:06;17.20;99.90
30889;DHT22;51092;50.874;7.024;2022-09-09T01:39:07;17.20;99.90
30889;DHT22;51092;50.874;7.024;2022-09-09T01:40:10;17.20;99.90
30889;DHT22;51092;50.874;7.024;2022-09-09T01:41:13;17.10;99.90
30889;DHT22;51092;50.874;7.024;2022-09-09T01:42:16;17.10;99.90
30889;DHT22;51092;50.874;7.024;2022-09-09T01:43:20;17.10;99.90
30889;DHT22;51092;50.874;7.024;2022-09-09T01:44:23;17.00;99.90
30889;DHT22;51092;50.874;7.024;2022-09-09T01:45:26;17.00;99.90
30889;DHT22;51092;50.874;7.024;2022-09-09T01:46:29;17.00;99.90
30889;DHT22;51092;50.874;7.024;2022-09-09T01:47:30;17.00;99.90
30889;DHT22;51092;50.874;7.024;2022-09-09T01:48:33;17.00;99.90
30889;DHT22;51092;50.874;7.024;2022-09-09T01:49:35;17.00;99.90
30889;DHT22;51092;50.874;7.024;2022-09-09T01:50:38;17.00;99.90
30889;DHT22;51092;50.874;7.024;2022-09-09T01:51:40;17.10;99.90
30889;DHT22;51092;50.874;7.024;2022-09-09T01:52:47;17.00;99.90
30889;DHT22;51092;50.874;7.024;2022-09-09T01:53:50;17.10;99.90
30889;DHT22;51092;50.874;7.024;2022-09-09T01:54:52;17.10;99.90
30889;DHT22;51092;50.874;7.024;2022-09-09T01:56:05;17.10;99.90
30889;DHT22;51092;50.874;7.024;2022-09-09T01:57:17;17.10;99.90
30889;DHT22;51092;50.874;7.024;2022-09-09T01:58:24;17.10;99.90
30889;DHT22;51092;50.874;7.024;2022-09-09T01:59:54;17.10;99.90
30889;DHT22;51092;50.874;7.024;2022-09-09T02:01:06;17.10;99.90
30889;DHT22;51092;50.874;7.024;2022-09-09T02:02:11;17.20;99.90
30889;DHT22;51092;50.874;7.024;2022-09-09T02:03:21;17.20;99.90
30889;DHT22;51092;50.874;7.024;2022-09-09T02:04:36;17.30;99.90
30889;DHT22;51092;50.874;7.024;2022-09-09T02:05:41;17.30;99.90
30889;DHT22;51092;50.874;7.024;2022-09-09T02:06:46;17.30;99.90
30889;DHT22;51092;50.874;7.024;2022-09-09T02:07:52;17.30;99.90
30889;DHT22;51092;50.874;7.024;2022-09-09T02:08:57;17.30;99.90
30889;DHT22;51092;50.874;7.024;2022-09-09T02:10:05;17.30;99.90
30889;DHT22;51092;50.874;7.024;2022-09-09T02:11:13;17.30;99.90
30889;DHT22;51092;50.874;7.024;2022-09-09T02:12:19;17.20;99.90
30889;DHT22;51092;50.874;7.024;2022-09-09T02:13:23;17.20;99.90
30889;DHT22;51092;50.874;7.024;2022-09-09T02:14:30;17.20;99.90
30889;DHT22;51092;50.874;7.024;2022-09-09T02:15:35;17.20;99.90
30889;DHT22;51092;50.874;7.024;2022-09-09T02:16:43;17.20;99.90
30889;DHT22;51092;50.874;7.024;2022-09-09T02:17:46;17.20;99.90
30889;DHT22;51092;50.874;7.024;2022-09-09T02:18:55;17.20;99.90
30889;DHT22;51092;50.874;7.024;2022-09-09T02:20:00;17.10;99.90
30889;DHT22;51092;50.874;7.024;2022-09-09T02:21:05;17.00;99.90
30889;DHT22;51092;50.874;7.024;2022-09-09T02:22:07;17.00;99.90
30889;DHT22;51092;50.874;7.024;2022-09-09T02:23:11;17.10;99.90
30889;DHT22;51092;50.874;7.024;2022-09-09T02:24:15;17.10;99.90
30889;DHT22;51092;50.874;7.024;2022-09-09T02:25:21;17.10;99.90
30889;DHT22;51092;50.874;7.024;2022-09-09T02:26:23;17.10;99.90
30889;DHT22;51092;50.874;7.024;2022-09-09T02:27:29;17.10;99.90
30889;DHT22;51092;50.874;7.024;2022-09-09T02:28:32;17.20;99.90
30889;DHT22;51092;50.874;7.024;2022-09-09T02:29:39;17.10;99.90
30889;DHT22;51092;50.874;7.024;2022-09-09T02:30:42;17.10;99.90
30889;DHT22;51092;50.874;7.024;2022-09-09T02:31:50;17.10;99.90
30889;DHT22;51092;50.874;7.024;2022-09-09T02:32:54;17.10;99.90
30889;DHT22;51092;50.874;7.024;2022-09-09T02:34:03;17.10;99.90
30889;DHT22;51092;50.874;7.024;2022-09-09T02:35:09;17.10;99.90
30889;DHT22;51092;50.874;7.024;2022-09-09T02:36:15;17.10;99.90
30889;DHT22;51092;50.874;7.024;2022-09-09T02:37:20;17.10;99.90
30889;DHT22;51092;50.874;7.024;2022-09-09T02:38:26;17.10;99.90
30889;DHT22;51092;50.874;7.024;2022-09-09T02:39:30;17.20;99.90
30889;DHT22;51092;50.874;7.024;2022-09-09T02:40:32;17.20;99.90
30889;DHT22;51092;50.874;7.024;2022-09-09T02:41:36;17.20;99.90
30889;DHT22;51092;50.874;7.024;2022-09-09T02:42:41;17.20;99.90
30889;DHT22;51092;50.874;7.024;2022-09-09T02:43:43;17.20;99.90
30889;DHT22;51092;50.874;7.024;2022-09-09T02:44:46;17.20;99.90
30889;DHT22;51092;50.874;7.024;2022-09-09T02:45:51;17.30;99.90
30889;DHT22;51092;50.874;7.024;2022-09-09T02:47:09;17.30;99.90
30889;DHT22;51092;50.874;7.024;2022-09-09T02:48:17;17.20;99.90
30889;DHT22;51092;50.874;7.024;2022-09-09T02:49:33;17.20;99.90
30889;DHT22;51092;50.874;7.024;2022-09-09T02:50:42;17.20;99.90
30889;DHT22;51092;50.874;7.024;2022-09-09T02:51:53;17.30;99.90
30889;DHT22;51092;50.874;7.024;2022-09-09T02:53:06;17.30;99.90
30889;DHT22;51092;50.874;7.024;2022-09-09T02:54:17;17.30;99.90
30889;DHT22;51092;50.874;7.024;2022-09-09T02:55:25;17.30;99.90
30889;DHT22;51092;50.874;7.024;2022-09-09T02:56:36;17.20;99.90
30889;DHT22;51092;50.874;7.024;2022-09-09T02:57:43;17.30;99.90
30889;DHT22;51092;50.874;7.024;2022-09-09T02:58:49;17.20;99.90
30889;DHT22;51092;50.874;7.024;2022-09-09T02:59:51;17.20;99.90
30889;DHT22;51092;50.874;7.024;2022-09-09T03:00:55;17.20;99.90
30889;DHT22;51092;50.874;7.024;2022-09-09T03:01:58;17.30;99.90
30889;DHT22;51092;50.874;7.024;2022-09-09T03:03:01;17.40;99.90
30889;DHT22;51092;50.874;7.024;2022-09-09T03:04:03;17.40;99.90
30889;DHT22;51092;50.874;7.024;2022-09-09T03:05:07;17.40;99.90
30889;DHT22;51092;50.874;7.024;2022-09-09T03:06:08;17.30;99.90
30889;DHT22;51092;50.874;7.024;2022-09-09T03:07:11;17.40;99.90
30889;DHT22;51092;50.874;7.024;2022-09-09T03:08:13;17.30;99.90
30889;DHT22;51092;50.874;7.024;2022-09-09T03:09:16;17.30;99.90
30889;DHT22;51092;50.874;7.024;2022-09-09T03:10:18;17.30;99.90
30889;DHT22;51092;50.874;7.024;2022-09-09T03:11:20;17.30;99.90
30889;DHT22;51092;50.874;7.024;2022-09-09T03:12:22;17.30;99.90
30889;DHT22;51092;50.874;7.024;2022-09-09T03:13:26;17.30;99.90
30889;DHT22;51092;50.874;7.024;2022-09-09T03:14:28;17.20;99.90
30889;DHT22;51092;50.874;7.024;2022-09-09T03:15:31;17.20;99.90
30889;DHT22;51092;50.874;7.024;2022-09-09T03:16:32;17.30;99.90
30889;DHT22;51092;50.874;7.024;2022-09-09T03:17:35;17.30;99.90
30889;DHT22;51092;50.874;7.024;2022-09-09T03:18:36;17.30;99.90
30889;DHT22;51092;50.874;7.024;2022-09-09T03:19:38;17.40;99.90
30889;DHT22;51092;50.874;7.024;2022-09-09T03:20:42;17.40;99.90
30889;DHT22;51092;50.874;7.024;2022-09-09T03:21:44;17.40;99.90
30889;DHT22;51092;50.874;7.024;2022-09-09T03:22:46;17.40;99.90
30889;DHT22;51092;50.874;7.024;2022-09-09T03:23:48;17.40;99.90
30889;DHT22;51092;50.874;7.024;2022-09-09T03:24:49;17.40;99.90
30889;DHT22;51092;50.874;7.024;2022-09-09T03:25:51;17.40;99.90
30889;DHT22;51092;50.874;7.024;2022-09-09T03:26:52;17.40;99.90
30889;DHT22;51092;50.874;7.024;2022-09-09T03:27:57;17.40;99.90
30889;DHT22;51092;50.874;7.024;2022-09-09T03:29:03;17.50;99.90
30889;DHT22;51092;50.874;7.024;2022-09-09T03:30:08;17.50;99.90
30889;DHT22;51092;50.874;7.024;2022-09-09T03:31:11;17.60;99.90
30889;DHT22;51092;50.874;7.024;2022-09-09T03:32:12;17.60;99.90
30889;DHT22;51092;50.874;7.024;2022-09-09T03:33:16;17.60;99.90
30889;DHT22;51092;50.874;7.024;2022-09-09T03:34:18;17.60;99.90
30889;DHT22;51092;50.874;7.024;2022-09-09T03:35:21;17.60;99.90
30889;DHT22;51092;50.874;7.024;2022-09-09T03:36:23;17.50;99.90
30889;DHT22;51092;50.874;7.024;2022-09-09T03:37:25;17.50;99.90
30889;DHT22;51092;50.874;7.024;2022-09-09T03:38:27;17.50;99.90
30889;DHT22;51092;50.874;7.024;2022-09-09T03:39:30;17.50;99.90
30889;DHT22;51092;50.874;7.024;2022-09-09T03:40:31;17.50;99.90
30889;DHT22;51092;50.874;7.024;2022-09-09T03:41:34;17.60;99.90
30889;DHT22;51092;50.874;7.024;2022-09-09T03:42:36;17.50;99.90
30889;DHT22;51092;50.874;7.024;2022-09-09T03:43:39;17.50;99.90
30889;DHT22;51092;50.874;7.024;2022-09-09T03:44:42;17.50;99.90
30889;DHT22;51092;50.874;7.024;2022-09-09T03:45:53;17.50;99.90
30889;DHT22;51092;50.874;7.024;2022-09-09T03:46:58;17.50;99.90
30889;DHT22;51092;50.874;7.024;2022-09-09T03:48:01;17.40;99.90
30889;DHT22;51092;50.874;7.024;2022-09-09T03:49:04;17.40;99.90
30889;DHT22;51092;50.874;7.024;2022-09-09T03:50:06;17.50;99.90
30889;DHT22;51092;50.874;7.024;2022-09-09T03:51:10;17.50;99.90
30889;DHT22;51092;50.874;7.024;2022-09-09T03:52:12;17.50;99.90
30889;DHT22;51092;50.874;7.024;2022-09-09T03:53:16;17.50;99.90
30889;DHT22;51092;50.874;7.024;2022-09-09T03:54:17;17.40;99.90
30889;DHT22;51092;50.874;7.024;2022-09-09T03:55:21;17.40;99.90
30889;DHT22;51092;50.874;7.024;2022-09-09T03:56:22;17.50;99.90
30889;DHT22;51092;50.874;7.024;2022-09-09T03:57:25;17.60;99.90
30889;DHT22;51092;50.874;7.024;2022-09-09T03:58:27;17.60;99.90
30889;DHT22;51092;50.874;7.024;2022-09-09T03:59:30;17.60;99.90
30889;DHT22;51092;50.874;7.024;2022-09-09T04:00:33;17.60;99.90
30889;DHT22;51092;50.874;7.024;2022-09-09T04:01:35;17.50;99.90
30889;DHT22;51092;50.874;7.024;2022-09-09T04:02:37;17.50;99.90
30889;DHT22;51092;50.874;7.024;2022-09-09T04:03:40;17.50;99.90
30889;DHT22;51092;50.874;7.024;2022-09-09T04:04:41;17.50;99.90
30889;DHT22;51092;50.874;7.024;2022-09-09T04:05:44;17.60;99.90
30889;DHT22;51092;50.874;7.024;2022-09-09T04:06:45;17.60;99.90
30889;DHT22;51092;50.874;7.024;2022-09-09T04:07:49;17.60;99.90
30889;DHT22;51092;50.874;7.024;2022-09-09T04:08:52;17.70;99.90
30889;DHT22;51092;50.874;7.024;2022-09-09T04:09:53;17.60;99.90
30889;DHT22;51092;50.874;7.024;2022-09-09T04:10:55;17.60;99.90
30889;DHT22;51092;50.874;7.024;2022-09-09T04:11:58;17.50;99.90
30889;DHT22;51092;50.874;7.024;2022-09-09T04:13:02;17.50;99.90
30889;DHT22;51092;50.874;7.024;2022-09-09T04:14:04;17.50;99.90
30889;DHT22;51092;50.874;7.024;2022-09-09T04:15:07;17.50;99.90
30889;DHT22;51092;50.874;7.024;2022-09-09T04:16:14;17.50;99.90
30889;DHT22;51092;50.874;7.024;2022-09-09T04:17:18;17.60;99.90
30889;DHT22;51092;50.874;7.024;2022-09-09T04:18:21;17.60;99.90
30889;DHT22;51092;50.874;7.024;2022-09-09T04:19:23;17.70;99.90
30889;DHT22;51092;50.874;7.024;2022-09-09T04:20:26;17.80;99.90
30889;DHT22;51092;50.874;7.024;2022-09-09T04:21:27;17.80;99.90
30889;DHT22;51092;50.874;7.024;2022-09-09T04:22:30;17.80;99.90
30889;DHT22;51092;50.874;7.024;2022-09-09T04:23:33;17.80;99.90
30889;DHT22;51092;50.874;7.024;2022-09-09T04:24:36;17.80;99.90
30889;DHT22;51092;50.874;7.024;2022-09-09T04:25:37;17.70;99.90
30889;DHT22;51092;50.874;7.024;2022-09-09T04:26:40;17.60;99.90
30889;DHT22;51092;50.874;7.024;2022-09-09T04:27:41;17.60;99.90
30889;DHT22;51092;50.874;7.024;2022-09-09T04:28:44;17.60;99.90
30889;DHT22;51092;50.874;7.024;2022-09-09T04:29:47;17.60;99.90
30889;DHT22;51092;50.874;7.024;2022-09-09T04:30:50;17.50;99.90
30889;DHT22;51092;50.874;7.024;2022-09-09T04:31:54;17.50;99.90
30889;DHT22;51092;50.874;7.024;2022-09-09T04:32:57;17.40;99.90
30889;DHT22;51092;50.874;7.024;2022-09-09T04:33:59;17.40;99.90
30889;DHT22;51092;50.874;7.024;2022-09-09T04:35:06;17.40;99.90
30889;DHT22;51092;50.874;7.024;2022-09-09T04:36:08;17.40;99.90
30889;DHT22;51092;50.874;7.024;2022-09-09T04:37:10;17.50;99.90
30889;DHT22;51092;50.874;7.024;2022-09-09T04:38:12;17.40;99.90
30889;DHT22;51092;50.874;7.024;2022-09-09T04:39:14;17.50;99.90
30889;DHT22;51092;50.874;7.024;2022-09-09T04:40:15;17.40;99.90
30889;DHT22;51092;50.874;7.024;2022-09-09T04:41:17;17.40;99.90
30889;DHT22;51092;50.874;7.024;2022-09-09T04:42:18;17.40;99.90
30889;DHT22;51092;50.874;7.024;2022-09-09T04:43:21;17.30;99.90
30889;DHT22;51092;50.874;7.024;2022-09-09T04:44:23;17.30;99.90
30889;DHT22;51092;50.874;7.024;2022-09-09T04:45:25;17.40;99.90
30889;DHT22;51092;50.874;7.024;2022-09-09T04:46:27;17.30;99.90
30889;DHT22;51092;50.874;7.024;2022-09-09T04:47:30;17.30;99.90
30889;DHT22;51092;50.874;7.024;2022-09-09T04:48:31;17.30;99.90
30889;DHT22;51092;50.874;7.024;2022-09-09T04:49:34;17.40;99.90
30889;DHT22;51092;50.874;7.024;2022-09-09T04:50:36;17.40;99.90
30889;DHT22;51092;50.874;7.024;2022-09-09T04:51:38;17.40;99.90
30889;DHT22;51092;50.874;7.024;2022-09-09T04:52:41;17.40;99.90
30889;DHT22;51092;50.874;7.024;2022-09-09T04:53:42;17.40;99.90
30889;DHT22;51092;50.874;7.024;2022-09-09T04:54:45;17.30;99.90
30889;DHT22;51092;50.874;7.024;2022-09-09T04:55:47;17.30;99.90
30889;DHT22;51092;50.874;7.024;2022-09-09T04:56:50;17.30;99.90
30889;DHT22;51092;50.874;7.024;2022-09-09T04:57:51;17.30;99.90
30889;DHT22;51092;50.874;7.024;2022-09-09T04:58:55;17.40;99.90
30889;DHT22;51092;50.874;7.024;2022-09-09T04:59:57;17.40;99.90
30889;DHT22;51092;50.874;7.024;2022-09-09T05:01:06;17.40;99.90
30889;DHT22;51092;50.874;7.024;2022-09-09T05:02:09;17.30;99.90
30889;DHT22;51092;50.874;7.024;2022-09-09T05:03:12;17.30;99.90
30889;DHT22;51092;50.874;7.024;2022-09-09T05:04:15;17.30;99.90
30889;DHT22;51092;50.874;7.024;2022-09-09T05:05:17;17.30;99.90
30889;DHT22;51092;50.874;7.024;2022-09-09T05:06:21;17.30;99.90
30889;DHT22;51092;50.874;7.024;2022-09-09T05:07:22;17.30;99.90
30889;DHT22;51092;50.874;7.024;2022-09-09T05:08:25;17.30;99.90
30889;DHT22;51092;50.874;7.024;2022-09-09T05:09:26;17.40;99.90
30889;DHT22;51092;50.874;7.024;2022-09-09T05:10:30;17.40;99.90
30889;DHT22;51092;50.874;7.024;2022-09-09T05:11:33;17.50;99.90
30889;DHT22;51092;50.874;7.024;2022-09-09T05:12:37;17.50;99.90
30889;DHT22;51092;50.874;7.024;2022-09-09T05:13:39;17.50;99.90
30889;DHT22;51092;50.874;7.024;2022-09-09T05:14:41;17.50;99.90
30889;DHT22;51092;50.874;7.024;2022-09-09T05:15:51;17.50;99.90
30889;DHT22;51092;50.874;7.024;2022-09-09T05:16:53;17.50;99.90
30889;DHT22;51092;50.874;7.024;2022-09-09T05:17:58;17.50;99.90
30889;DHT22;51092;50.874;7.024;2022-09-09T05:19:01;17.50;99.90
30889;DHT22;51092;50.874;7.024;2022-09-09T05:20:05;17.50;99.90
30889;DHT22;51092;50.874;7.024;2022-09-09T05:21:07;17.60;99.90
30889;DHT22;51092;50.874;7.024;2022-09-09T05:22:09;17.50;99.90
30889;DHT22;51092;50.874;7.024;2022-09-09T05:23:12;17.50;99.90
30889;DHT22;51092;50.874;7.024;2022-09-09T05:24:15;17.60;99.90
30889;DHT22;51092;50.874;7.024;2022-09-09T05:25:17;17.50;99.90
30889;DHT22;51092;50.874;7.024;2022-09-09T05:26:22;17.50;99.90
30889;DHT22;51092;50.874;7.024;2022-09-09T05:27:23;17.50;99.90
30889;DHT22;51092;50.874;7.024;2022-09-09T05:28:27;17.50;99.90
30889;DHT22;51092;50.874;7.024;2022-09-09T05:29:29;17.50;99.90
30889;DHT22;51092;50.874;7.024;2022-09-09T05:30:34;17.60;99.90
30889;DHT22;51092;50.874;7.024;2022-09-09T05:31:35;17.50;99.90
30889;DHT22;51092;50.874;7.024;2022-09-09T05:32:38;17.60;99.90
30889;DHT22;51092;50.874;7.024;2022-09-09T05:33:40;17.50;99.90
30889;DHT22;51092;50.874;7.024;2022-09-09T05:34:45;17.50;99.90
30889;DHT22;51092;50.874;7.024;2022-09-09T05:35:48;17.50;99.90
30889;DHT22;51092;50.874;7.024;2022-09-09T05:36:56;17.50;99.90
30889;DHT22;51092;50.874;7.024;2022-09-09T05:37:59;17.50;99.90
30889;DHT22;51092;50.874;7.024;2022-09-09T05:39:02;17.50;99.90
30889;DHT22;51092;50.874;7.024;2022-09-09T05:40:05;17.50;99.90
30889;DHT22;51092;50.874;7.024;2022-09-09T05:41:08;17.50;99.90
30889;DHT22;51092;50.874;7.024;2022-09-09T05:42:11;17.40;99.90
30889;DHT22;51092;50.874;7.024;2022-09-09T05:43:13;17.40;99.90
30889;DHT22;51092;50.874;7.024;2022-09-09T05:44:15;17.40;99.90
30889;DHT22;51092;50.874;7.024;2022-09-09T05:45:18;17.40;99.90
30889;DHT22;51092;50.874;7.024;2022-09-09T05:46:20;17.40;99.90
30889;DHT22;51092;50.874;7.024;2022-09-09T05:47:23;17.40;99.90
30889;DHT22;51092;50.874;7.024;2022-09-09T05:48:28;17.40;99.90
30889;DHT22;51092;50.874;7.024;2022-09-09T05:49:30;17.40;99.90
30889;DHT22;51092;50.874;7.024;2022-09-09T05:50:34;17.40;99.90
30889;DHT22;51092;50.874;7.024;2022-09-09T05:51:36;17.40;99.90
30889;DHT22;51092;50.874;7.024;2022-09-09T05:52:38;17.50;99.90
30889;DHT22;51092;50.874;7.024;2022-09-09T05:53:40;17.50;99.90
30889;DHT22;51092;50.874;7.024;2022-09-09T05:54:42;17.50;99.90
30889;DHT22;51092;50.874;7.024;2022-09-09T05:55:44;17.50;99.90
30889;DHT22;51092;50.874;7.024;2022-09-09T05:56:47;17.50;99.90
30889;DHT22;51092;50.874;7.024;2022-09-09T05:57:50;17.50;99.90
30889;DHT22;51092;50.874;7.024;2022-09-09T05:58:53;17.50;99.90
30889;DHT22;51092;50.874;7.024;2022-09-09T05:59:56;17.50;99.90
30889;DHT22;51092;50.874;7.024;2022-09-09T06:01:03;17.50;99.90
30889;DHT22;51092;50.874;7.024;2022-09-09T06:02:08;17.50;99.90
30889;DHT22;51092;50.874;7.024;2022-09-09T06:03:11;17.50;99.90
30889;DHT22;51092;50.874;7.024;2022-09-09T06:04:12;17.60;99.90
30889;DHT22;51092;50.874;7.024;2022-09-09T06:05:15;17.60;99.90
30889;DHT22;51092;50.874;7.024;2022-09-09T06:06:19;17.60;99.90
30889;DHT22;51092;50.874;7.024;2022-09-09T06:07:22;17.70;99.90
30889;DHT22;51092;50.874;7.024;2022-09-09T06:08:25;17.70;99.90
30889;DHT22;51092;50.874;7.024;2022-09-09T06:09:27;17.70;99.90
30889;DHT22;51092;50.874;7.024;2022-09-09T06:10:31;17.70;99.90
30889;DHT22;51092;50.874;7.024;2022-09-09T06:11:33;17.70;99.90
30889;DHT22;51092;50.874;7.024;2022-09-09T06:12:37;17.70;99.90
30889;DHT22;51092;50.874;7.024;2022-09-09T06:13:39;17.70;99.90
30889;DHT22;51092;50.874;7.024;2022-09-09T06:14:41;17.70;99.90
30889;DHT22;51092;50.874;7.024;2022-09-09T06:15:49;17.80;99.90
30889;DHT22;51092;50.874;7.024;2022-09-09T06:16:51;17.80;99.90
30889;DHT22;51092;50.874;7.024;2022-09-09T06:17:54;17.80;99.90
30889;DHT22;51092;50.874;7.024;2022-09-09T06:18:57;17.80;99.90
30889;DHT22;51092;50.874;7.024;2022-09-09T06:19:59;17.90;99.90
30889;DHT22;51092;50.874;7.024;2022-09-09T06:21:04;17.90;99.90
30889;DHT22;51092;50.874;7.024;2022-09-09T06:22:07;17.90;99.90
30889;DHT22;51092;50.874;7.024;2022-09-09T06:23:13;17.90;99.90
30889;DHT22;51092;50.874;7.024;2022-09-09T06:24:15;17.80;99.90
30889;DHT22;51092;50.874;7.024;2022-09-09T06:25:20;17.80;99.90
30889;DHT22;51092;50.874;7.024;2022-09-09T06:26:23;17.90;99.90
30889;DHT22;51092;50.874;7.024;2022-09-09T06:27:27;17.90;99.90
30889;DHT22;51092;50.874;7.024;2022-09-09T06:28:28;17.90;99.90
30889;DHT22;51092;50.874;7.024;2022-09-09T06:29:31;17.90;99.90
30889;DHT22;51092;50.874;7.024;2022-09-09T06:30:32;17.80;99.90
30889;DHT22;51092;50.874;7.024;2022-09-09T06:31:36;17.80;99.90
30889;DHT22;51092;50.874;7.024;2022-09-09T06:32:38;17.70;99.90
30889;DHT22;51092;50.874;7.024;2022-09-09T06:33:41;17.80;99.90
30889;DHT22;51092;50.874;7.024;2022-09-09T06:34:43;17.80;99.90
30889;DHT22;51092;50.874;7.024;2022-09-09T06:35:51;17.80;99.90
30889;DHT22;51092;50.874;7.024;2022-09-09T06:36:54;17.90;99.90
30889;DHT22;51092;50.874;7.024;2022-09-09T06:38:00;17.90;99.90
30889;DHT22;51092;50.874;7.024;2022-09-09T06:39:01;17.90;99.90
30889;DHT22;51092;50.874;7.024;2022-09-09T06:40:05;17.90;99.90
30889;DHT22;51092;50.874;7.024;2022-09-09T06:41:09;17.90;99.90
30889;DHT22;51092;50.874;7.024;2022-09-09T06:42:11;17.90;99.90
30889;DHT22;51092;50.874;7.024;2022-09-09T06:43:13;17.90;99.90
30889;DHT22;51092;50.874;7.024;2022-09-09T06:44:14;18.00;99.90
30889;DHT22;51092;50.874;7.024;2022-09-09T06:45:17;18.00;99.90
30889;DHT22;51092;50.874;7.024;2022-09-09T06:46:20;18.00;99.90
30889;DHT22;51092;50.874;7.024;2022-09-09T06:47:22;17.90;99.90
30889;DHT22;51092;50.874;7.024;2022-09-09T06:48:26;17.90;99.90
30889;DHT22;51092;50.874;7.024;2022-09-09T06:49:29;18.00;99.90
30889;DHT22;51092;50.874;7.024;2022-09-09T06:50:30;17.90;99.90
30889;DHT22;51092;50.874;7.024;2022-09-09T06:51:35;17.90;99.90